createdAt,value
2022-09-05T00:02:07.054Z,76.71
2022-09-05T00:07:59.621Z,76.96
2022-09-05T00:13:07.564Z,77.02
2022-09-05T00:23:29.115Z,77.41
2022-09-05T00:24:27.281Z,77.50
2022-09-05T00:29:07.391Z,77.89
2022-09-05T00:34:47.834Z,77.58
2022-09-05T00:39:50.656Z,77.77
2022-09-05T00:45:14.427Z,77.72
2022-09-05T00:50:43.373Z,78.15
2022-09-05T00:56:17.893Z,77.72
2022-09-05T01:01:28.268Z,77.67
2022-09-05T01:06:46.306Z,77.95
2022-09-05T01:11:47.814Z,77.90
2022-09-05T01:17:24.691Z,78.03
2022-09-05T01:22:54.655Z,78.50
2022-09-05T01:29:13.106Z,78.20
2022-09-05T01:34:05.135Z,78.33
2022-09-05T01:40:11.075Z,78.32
2022-09-05T01:44:59.362Z,78.37
2022-09-05T01:50:20.242Z,78.32
2022-09-05T01:56:01.939Z,78.20
2022-09-05T02:01:33.207Z,78.14
2022-09-05T02:06:54.786Z,78.16
2022-09-05T02:12:20.249Z,77.90
2022-09-05T02:17:51.102Z,78.01
2022-09-05T02:23:24.626Z,77.72
2022-09-05T02:28:38.497Z,77.99
2022-09-05T02:33:47.633Z,77.98
2022-09-05T02:42:51.195Z,78.55
2022-09-05T02:45:15.332Z,79.00
2022-09-05T02:54:12.846Z,78.33
2022-09-05T02:58:05.702Z,78.41
2022-09-05T03:01:55.778Z,78.65
2022-09-05T03:07:17.542Z,78.68
2022-09-05T03:12:31.339Z,78.47
2022-09-05T03:18:20.227Z,78.31
2022-09-05T03:23:33.120Z,78.89
2022-09-05T03:29:12.012Z,79.30
2022-09-05T03:34:13.460Z,79.03
2022-09-05T03:39:18.140Z,79.61
2022-09-05T03:44:31.580Z,79.67
2022-09-05T03:57:06.951Z,79.58
2022-09-05T03:57:16.806Z,79.54
2022-09-05T04:02:59.987Z,79.51
2022-09-05T04:08:31.225Z,79.65
2022-09-05T04:12:52.264Z,79.73
2022-09-05T04:18:03.872Z,79.56
2022-09-05T04:23:30.658Z,79.30
2022-09-05T04:28:44.560Z,79.30
2022-09-05T04:34:10.472Z,79.18
2022-09-05T04:39:17.934Z,78.99
2022-09-05T04:44:27.568Z,78.87
2022-09-05T04:49:34.279Z,79.08
2022-09-05T04:55:10.900Z,78.97
2022-09-05T05:06:04.495Z,78.72
2022-09-05T05:06:17.755Z,78.94
2022-09-05T05:18:02.674Z,78.56
2022-09-05T05:18:07.470Z,78.61
2022-09-05T05:22:18.135Z,78.73
2022-09-05T05:27:26.012Z,78.73
2022-09-05T05:32:46.030Z,78.25
2022-09-05T05:37:55.629Z,78.08
2022-09-05T05:43:13.874Z,78.29
2022-09-05T05:48:18.465Z,77.79
2022-09-05T05:53:51.666Z,77.72
2022-09-05T05:59:11.237Z,77.39
2022-09-05T06:04:24.570Z,76.71
2022-09-05T06:13:00.890Z,76.21
2022-09-05T06:15:26.698Z,75.56
2022-09-05T06:22:06.749Z,75.43
2022-09-05T06:26:14.431Z,74.88
2022-09-05T06:31:55.393Z,74.18
2022-09-05T06:37:31.643Z,73.42
2022-09-05T06:42:57.858Z,72.51
2022-09-05T06:48:44.790Z,71.70
2022-09-05T06:54:32.535Z,71.19
2022-09-05T06:59:55.528Z,70.64
2022-09-05T07:05:31.421Z,70.64
2022-09-05T07:10:39.845Z,69.15
2022-09-05T07:16:26.490Z,68.44
2022-09-05T07:22:00.573Z,68.50
2022-09-05T07:27:08.989Z,68.71
2022-09-05T07:32:19.260Z,68.51
2022-09-05T07:37:32.613Z,67.13
2022-09-05T07:43:09.917Z,66.58
2022-09-05T07:48:22.267Z,65.29
2022-09-05T07:56:51.098Z,64.49
2022-09-05T07:58:52.755Z,64.34
2022-09-05T08:03:56.047Z,65.34
2022-09-05T08:09:21.353Z,62.99
2022-09-05T08:14:55.024Z,63.06
2022-09-05T08:20:09.443Z,62.01
2022-09-05T08:25:19.470Z,61.43
2022-09-05T08:30:26.356Z,60.83
2022-09-05T08:35:38.237Z,60.32
2022-09-05T08:41:06.028Z,60.56
2022-09-05T08:46:40.814Z,59.45
2022-09-05T08:51:55.266Z,59.64
2022-09-05T08:57:28.233Z,58.71
2022-09-05T09:02:47.283Z,58.45
2022-09-05T09:08:08.167Z,57.75
2022-09-05T09:13:18.267Z,57.40
2022-09-05T09:18:21.509Z,56.19
2022-09-05T09:23:55.295Z,55.07
2022-09-05T09:29:04.186Z,55.42
2022-09-05T09:34:25.945Z,54.39
2022-09-05T09:39:38.268Z,52.91
2022-09-05T09:45:01.606Z,52.47
2022-09-05T09:50:45.070Z,52.96
2022-09-05T09:56:37.859Z,51.93
2022-09-05T10:05:01.318Z,52.26
2022-09-05T10:10:52.608Z,50.65
2022-09-05T10:13:26.906Z,51.49
2022-09-05T10:18:47.597Z,50.96
2022-09-05T10:23:57.943Z,49.57
2022-09-05T10:29:28.802Z,50.61
2022-09-05T10:35:12.789Z,50.77
2022-09-05T10:40:20.963Z,52.05
2022-09-05T10:45:37.939Z,50.21
2022-09-05T10:50:44.572Z,49.71
2022-09-05T10:55:52.398Z,50.25
2022-09-05T11:02:29.119Z,48.52
2022-09-05T11:06:46.669Z,49.80
2022-09-05T11:12:03.624Z,48.47
2022-09-05T11:17:12.633Z,47.79
2022-09-05T11:22:23.476Z,49.63
2022-09-05T11:27:40.231Z,47.41
2022-09-05T11:38:13.200Z,47.74
2022-09-05T11:40:07.048Z,47.58
2022-09-05T11:44:25.815Z,47.00
2022-09-05T11:49:54.495Z,48.89
2022-09-05T11:55:34.655Z,49.46
2022-09-05T12:00:52.204Z,46.95
2022-09-05T12:06:29.090Z,48.04
2022-09-05T12:12:06.424Z,47.57
2022-09-05T12:18:18.898Z,47.76
2022-09-05T12:23:47.553Z,47.16
2022-09-05T12:29:33.432Z,47.17
2022-09-05T12:36:07.009Z,47.35
2022-09-05T12:41:35.011Z,47.36
2022-09-05T12:51:08.853Z,48.32
2022-09-05T13:00:03.955Z,47.46
2022-09-05T13:03:06.706Z,46.40
2022-09-05T13:07:38.968Z,46.56
2022-09-05T13:14:49.646Z,47.83
2022-09-05T13:18:16.395Z,47.47
2022-09-05T13:23:24.105Z,48.03
2022-09-05T13:28:43.162Z,47.05
2022-09-05T13:37:59.533Z,47.26
2022-09-05T13:39:18.170Z,47.93
2022-09-05T13:44:27.413Z,46.22
2022-09-05T13:49:40.670Z,47.05
2022-09-05T13:55:10.651Z,46.46
2022-09-05T14:00:28.176Z,45.65
2022-09-05T14:05:51.947Z,46.13
2022-09-05T14:11:03.309Z,46.40
2022-09-05T14:16:12.472Z,46.78
2022-09-05T14:21:17.319Z,46.24
2022-09-05T14:26:42.397Z,46.65
2022-09-05T14:37:37.007Z,47.64
2022-09-05T14:38:00.925Z,46.63
2022-09-05T14:42:54.916Z,47.03
2022-09-05T14:48:13.340Z,47.25
2022-09-05T15:02:53.354Z,46.24
2022-09-05T15:12:14.943Z,45.89
2022-09-05T15:15:14.026Z,45.52
2022-09-05T15:20:37.115Z,45.92
2022-09-05T15:25:45.832Z,46.34
2022-09-05T15:31:05.094Z,46.83
2022-09-05T15:36:13.406Z,47.19
2022-09-05T15:41:22.720Z,47.61
2022-09-05T15:46:32.838Z,48.12
2022-09-05T15:51:45.251Z,47.72
2022-09-05T15:56:51.807Z,48.17
2022-09-05T16:01:58.918Z,47.99
2022-09-05T16:10:38.970Z,48.11
2022-09-05T16:12:46.385Z,48.13
2022-09-05T16:23:15.645Z,48.14
2022-09-05T16:23:41.500Z,48.46
2022-09-05T16:28:47.950Z,48.89
2022-09-05T16:33:49.726Z,49.43
2022-09-05T16:39:14.819Z,49.55
2022-09-05T16:44:22.892Z,49.69
2022-09-05T16:49:41.758Z,49.89
2022-09-05T16:54:56.444Z,49.96
2022-09-05T16:59:58.844Z,50.25
2022-09-05T17:05:06.685Z,50.46
2022-09-05T17:10:11.772Z,50.83
2022-09-05T17:15:26.251Z,50.39
2022-09-05T17:20:30.631Z,51.10
2022-09-05T17:29:30.887Z,51.08
2022-09-05T17:36:47.425Z,51.77
2022-09-05T17:42:18.294Z,52.05
2022-09-05T17:47:36.220Z,52.39
2022-09-05T17:53:26.779Z,52.55
2022-09-05T17:58:49.047Z,52.46
2022-09-05T18:03:52.019Z,52.64
2022-09-05T18:08:53.698Z,53.04
2022-09-05T18:14:01.264Z,53.50
2022-09-05T18:19:32.417Z,53.78
2022-09-05T18:24:45.140Z,53.94
2022-09-05T18:30:09.886Z,53.92
2022-09-05T18:35:27.916Z,54.14
2022-09-05T18:41:06.308Z,54.19
2022-09-05T18:46:22.943Z,54.29
2022-09-05T18:51:35.488Z,54.57
2022-09-05T18:57:03.027Z,54.69
2022-09-05T19:02:02.754Z,54.62
2022-09-05T19:07:30.142Z,54.88
2022-09-05T19:12:42.776Z,55.21
2022-09-05T19:18:26.271Z,55.45
2022-09-05T19:23:28.182Z,55.44
2022-09-05T19:36:54.259Z,55.94
2022-09-05T19:36:58.702Z,55.71
2022-09-05T19:41:39.929Z,55.61
2022-09-05T19:47:51.106Z,56.00
2022-09-05T19:50:29.707Z,56.23
2022-09-05T19:55:36.016Z,56.39
2022-09-05T20:00:40.543Z,55.81
2022-09-05T20:05:42.294Z,55.78
2022-09-05T20:10:43.886Z,55.88
2022-09-05T20:15:45.521Z,55.75
2022-09-05T20:20:56.905Z,55.57
2022-09-05T20:25:59.459Z,55.72
2022-09-05T20:31:08.484Z,55.66
2022-09-05T20:40:48.537Z,55.38
2022-09-05T20:43:20.080Z,55.59
2022-09-05T20:53:05.590Z,55.45
2022-09-05T20:54:26.822Z,54.86
2022-09-05T20:58:31.291Z,55.36
2022-09-05T21:03:39.752Z,55.13
2022-09-05T21:08:41.383Z,55.24
2022-09-05T21:13:52.415Z,55.54
2022-09-05T21:18:54.919Z,55.34
2022-09-05T21:23:59.563Z,55.31
2022-09-05T21:29:16.613Z,55.22
2022-09-05T21:34:25.609Z,55.33
2022-09-05T21:39:30.759Z,55.54
2022-09-05T21:47:39.037Z,55.34
2022-09-05T21:49:55.436Z,55.31
2022-09-05T21:59:21.314Z,55.60
2022-09-05T22:00:20.810Z,55.57
2022-09-05T22:05:25.346Z,55.41
2022-09-05T22:10:41.609Z,55.29
2022-09-05T22:15:49.543Z,54.93
2022-09-05T22:21:31.834Z,55.18
2022-09-05T22:26:16.829Z,55.26
2022-09-05T22:31:19.875Z,55.02
2022-09-05T22:36:21.772Z,55.10
2022-09-05T22:41:30.271Z,55.39
2022-09-05T22:46:32.881Z,55.43
2022-09-05T22:51:34.501Z,55.18
2022-09-05T22:56:38.093Z,55.02
2022-09-05T23:01:39.713Z,55.17
2022-09-05T23:06:41.358Z,54.72
2022-09-05T23:11:42.938Z,55.22
2022-09-05T23:16:44.534Z,55.38
2022-09-05T23:21:46.110Z,54.98
2022-09-05T23:26:47.696Z,55.12
2022-09-05T23:31:49.340Z,55.31
2022-09-05T23:36:51.002Z,55.50
2022-09-05T23:41:52.575Z,55.42
2022-09-05T23:46:54.156Z,55.49
2022-09-05T23:51:55.742Z,55.35
2022-09-05T23:56:57.439Z,55.41
